Time;durP1;ratioP1;P1;durP2;ratioP2;P2;SDS_P1;SDS_P2;PMS_P1;PMS_P2;Temp;Humidity;BMP_temperature;BMP_pressure;BME280_temperature;BME280_humidity;BME280_pressure;Samples;Min_cycle;Max_cycle;Signal;HPM_P1;HPM_P2
2021/05/29 00:02:00;;;;;;;10.70;4.28;;;10.00;99.90;;;;;;5054247;28;20102;-66
2021/05/29 00:04:28;;;;;;;8.15;4.45;;;10.00;99.90;;;;;;5054704;28;20044;-66
2021/05/29 00:06:55;;;;;;;8.65;5.07;;;9.90;99.90;;;;;;5052950;28;20054;-66
2021/05/29 00:09:21;;;;;;;9.52;4.43;;;9.80;99.90;;;;;;5056367;28;20560;-66
2021/05/29 00:11:48;;;;;;;9.80;4.65;;;9.90;99.90;;;;;;5052285;28;20059;-66
2021/05/29 00:14:15;;;;;;;10.10;4.97;;;9.90;99.90;;;;;;5055568;28;20062;-66
2021/05/29 00:16:42;;;;;;;16.20;4.43;;;9.80;99.90;;;;;;5055033;28;20059;-65
2021/05/29 00:19:09;;;;;;;11.27;5.00;;;9.80;99.90;;;;;;5053210;28;20086;-66
2021/05/29 00:21:37;;;;;;;12.05;4.88;;;9.80;99.90;;;;;;5056926;28;20924;-66
2021/05/29 00:24:04;;;;;;;10.27;5.10;;;9.80;99.90;;;;;;5049497;28;20059;-65
2021/05/29 00:26:30;;;;;;;8.77;4.38;;;9.80;99.90;;;;;;5046542;28;20432;-66
2021/05/29 00:28:57;;;;;;;8.13;4.20;;;9.70;99.90;;;;;;5042476;28;20052;-65
2021/05/29 00:31:24;;;;;;;9.60;4.50;;;9.70;99.90;;;;;;5046625;28;20052;-65
2021/05/29 00:33:50;;;;;;;9.80;4.72;;;9.70;99.90;;;;;;5044151;28;20044;-65
2021/05/29 00:36:17;;;;;;;9.07;4.78;;;9.70;99.90;;;;;;5043852;28;20730;-65
2021/05/29 00:38:48;;;;;;;9.23;4.68;;;9.70;99.90;;;;;;5044079;28;20048;-65
2021/05/29 00:41:16;;;;;;;9.20;5.03;;;9.70;99.90;;;;;;5043071;28;20618;-65
2021/05/29 00:43:43;;;;;;;9.57;4.75;;;9.60;99.90;;;;;;5043911;28;20052;-65
2021/05/29 00:46:10;;;;;;;11.85;4.88;;;9.50;99.90;;;;;;5043964;28;20056;-65
2021/05/29 00:48:38;;;;;;;10.85;4.75;;;9.40;99.90;;;;;;5044476;28;20052;-65
2021/05/29 00:51:06;;;;;;;8.13;4.38;;;9.40;99.90;;;;;;5045747;28;20078;-65
2021/05/29 00:53:34;;;;;;;13.25;4.55;;;9.40;99.90;;;;;;5043999;28;20075;-65
2021/05/29 00:56:04;;;;;;;8.30;4.25;;;9.40;99.90;;;;;;5042135;28;20382;-65
2021/05/29 00:58:31;;;;;;;8.48;4.78;;;9.30;99.90;;;;;;5045183;28;20060;-65
2021/05/29 01:00:58;;;;;;;9.32;4.78;;;9.20;99.90;;;;;;5047830;28;20044;-65
2021/05/29 01:03:26;;;;;;;9.95;4.57;;;9.10;99.90;;;;;;5046237;28;20397;-65
2021/05/29 01:05:53;;;;;;;10.48;5.88;;;9.20;99.90;;;;;;5046228;28;20056;-65
2021/05/29 01:08:23;;;;;;;8.77;4.45;;;9.30;99.90;;;;;;5044596;28;20048;-65
2021/05/29 01:10:50;;;;;;;9.00;4.70;;;9.10;99.90;;;;;;5043806;28;20101;-65
2021/05/29 01:13:21;;;;;;;14.60;4.68;;;9.10;99.90;;;;;;5043752;28;20040;-65
2021/05/29 01:15:50;;;;;;;9.93;3.75;;;9.10;99.90;;;;;;5045481;28;20052;-65
2021/05/29 01:18:17;;;;;;;12.63;5.78;;;9.20;99.90;;;;;;5042633;28;20052;-65
2021/05/29 01:20:46;;;;;;;7.88;4.35;;;9.20;99.90;;;;;;5043816;28;20044;-65
2021/05/29 01:23:14;;;;;;;9.23;4.95;;;9.10;99.90;;;;;;5045795;28;20052;-65
2021/05/29 01:25:44;;;;;;;9.75;5.25;;;9.30;99.90;;;;;;5043424;28;20497;-65
2021/05/29 01:28:13;;;;;;;10.82;4.45;;;9.20;99.90;;;;;;5043434;28;20143;-65
2021/05/29 01:30:46;;;;;;;8.05;4.47;;;9.10;99.90;;;;;;5044854;28;20181;-65
2021/05/29 01:33:14;;;;;;;11.23;4.57;;;9.10;99.90;;;;;;5042914;28;20052;-65
2021/05/29 01:35:41;;;;;;;9.32;4.50;;;9.00;99.90;;;;;;5045723;28;20044;-65
2021/05/29 01:38:08;;;;;;;10.80;4.90;;;9.10;99.90;;;;;;5045168;28;20579;-65
2021/05/29 01:40:36;;;;;;;7.82;4.53;;;9.10;99.90;;;;;;5043375;28;20122;-65
2021/05/29 01:43:03;;;;;;;7.97;4.15;;;9.10;99.90;;;;;;5044709;28;20078;-65
2021/05/29 01:45:31;;;;;;;9.05;4.40;;;9.10;99.90;;;;;;5043972;28;20052;-65
2021/05/29 01:47:57;;;;;;;9.75;4.43;;;9.10;99.90;;;;;;5043523;28;20815;-65
2021/05/29 01:50:24;;;;;;;9.30;4.72;;;9.10;99.90;;;;;;5041936;28;20110;-65
2021/05/29 01:52:53;;;;;;;8.68;4.70;;;9.10;99.90;;;;;;5044940;28;20509;-65
2021/05/29 01:55:22;;;;;;;9.70;5.50;;;9.10;99.90;;;;;;5045139;28;20463;-65
2021/05/29 01:57:50;;;;;;;11.77;5.20;;;9.10;99.90;;;;;;5044266;28;20133;-65
2021/05/29 02:00:19;;;;;;;8.10;4.45;;;9.00;99.90;;;;;;5046333;28;20055;-65
2021/05/29 02:02:46;;;;;;;9.73;5.22;;;9.00;99.90;;;;;;5045532;28;20055;-65
2021/05/29 02:05:15;;;;;;;10.88;4.90;;;8.90;99.90;;;;;;5044320;28;20059;-65
2021/05/29 02:07:43;;;;;;;10.57;4.90;;;8.90;99.90;;;;;;5043262;28;20424;-65
2021/05/29 02:10:11;;;;;;;8.27;4.65;;;8.80;99.90;;;;;;5045591;28;20077;-65
2021/05/29 02:12:39;;;;;;;8.18;4.53;;;8.70;99.90;;;;;;5046672;28;20054;-65
2021/05/29 02:15:09;;;;;;;9.35;4.78;;;8.70;99.90;;;;;;5044067;28;20044;-65
2021/05/29 02:17:36;;;;;;;8.48;4.70;;;8.70;99.90;;;;;;5042576;28;20048;-65
2021/05/29 02:20:04;;;;;;;10.00;5.18;;;8.60;99.90;;;;;;5041803;28;20075;-65
2021/05/29 02:22:31;;;;;;;10.88;4.93;;;8.50;99.90;;;;;;5042322;28;20463;-65
2021/05/29 02:24:58;;;;;;;7.20;4.18;;;8.50;99.90;;;;;;5041993;28;20114;-65
2021/05/29 02:27:24;;;;;;;8.73;4.60;;;8.50;99.90;;;;;;5043552;28;20056;-65
2021/05/29 02:29:51;;;;;;;10.95;4.40;;;8.40;99.90;;;;;;5042990;28;20056;-65
2021/05/29 02:32:19;;;;;;;9.20;5.05;;;8.40;99.90;;;;;;5042273;28;20048;-65
2021/05/29 02:34:46;;;;;;;7.72;4.45;;;8.30;99.90;;;;;;5043871;28;20048;-65
2021/05/29 02:37:12;;;;;;;8.35;4.47;;;8.30;99.90;;;;;;5040575;28;20049;-65
2021/05/29 02:39:39;;;;;;;8.30;4.22;;;8.30;99.90;;;;;;5043337;28;20051;-65
2021/05/29 02:42:06;;;;;;;10.27;4.63;;;8.30;99.90;;;;;;5040697;28;20409;-65
2021/05/29 02:44:32;;;;;;;9.20;4.85;;;8.20;99.90;;;;;;5044305;28;20056;-65
2021/05/29 02:47:00;;;;;;;6.95;3.90;;;8.20;99.90;;;;;;5045573;28;20056;-65
2021/05/29 02:49:28;;;;;;;8.50;4.45;;;8.20;99.90;;;;;;5043877;28;20060;-65
2021/05/29 02:51:54;;;;;;;9.13;4.57;;;8.20;99.90;;;;;;5040553;28;20063;-65
2021/05/29 02:54:22;;;;;;;8.52;4.35;;;8.10;99.90;;;;;;5045251;28;20058;-65
2021/05/29 02:56:49;;;;;;;9.98;4.85;;;8.10;99.90;;;;;;5042243;28;20052;-65
2021/05/29 02:59:16;;;;;;;7.63;4.63;;;8.10;99.90;;;;;;5041256;28;20079;-65
2021/05/29 03:01:43;;;;;;;10.50;4.68;;;8.20;99.90;;;;;;5041830;28;20048;-65
2021/05/29 03:04:10;;;;;;;8.77;4.82;;;8.20;99.90;;;;;;5042426;28;20048;-65
2021/05/29 03:06:38;;;;;;;8.48;4.68;;;8.10;99.90;;;;;;5042912;28;20531;-65
2021/05/29 03:09:05;;;;;;;9.30;4.57;;;8.20;99.90;;;;;;5043474;28;20113;-65
2021/05/29 03:11:38;;;;;;;8.45;4.60;;;8.30;99.90;;;;;;5042007;28;20394;-65
2021/05/29 03:14:04;;;;;;;7.70;4.50;;;8.40;99.90;;;;;;5044009;28;20055;-65
2021/05/29 03:16:31;;;;;;;8.70;4.70;;;8.60;99.90;;;;;;5044119;28;20051;-65
2021/05/29 03:18:58;;;;;;;8.80;4.65;;;8.50;99.90;;;;;;5041395;28;20052;-65
2021/05/29 03:21:24;;;;;;;14.55;4.70;;;8.50;99.90;;;;;;5039872;28;20056;-65
2021/05/29 03:23:52;;;;;;;8.82;4.60;;;8.50;99.90;;;;;;5044146;28;20052;-65
2021/05/29 03:26:18;;;;;;;9.93;4.43;;;8.60;99.90;;;;;;5044363;28;20060;-65
2021/05/29 03:28:45;;;;;;;7.57;4.20;;;8.60;99.90;;;;;;5040691;28;20051;-65
2021/05/29 03:31:12;;;;;;;8.07;4.35;;;8.70;99.90;;;;;;5042259;28;20152;-65
2021/05/29 03:33:38;;;;;;;8.60;4.65;;;8.60;99.90;;;;;;5041635;28;20525;-65
2021/05/29 03:36:05;;;;;;;8.85;4.50;;;8.70;99.90;;;;;;5039969;28;20048;-65
2021/05/29 03:38:32;;;;;;;8.80;4.97;;;8.70;99.90;;;;;;5042505;28;20445;-65
2021/05/29 03:41:00;;;;;;;9.18;5.15;;;8.80;99.90;;;;;;5040275;28;20057;-65
2021/05/29 03:43:27;;;;;;;8.57;4.47;;;8.70;99.90;;;;;;5044775;28;20052;-65
2021/05/29 03:45:54;;;;;;;8.93;4.68;;;8.70;99.90;;;;;;5041190;28;21246;-65
2021/05/29 03:48:20;;;;;;;8.63;4.05;;;8.70;99.90;;;;;;5043411;28;20478;-65
2021/05/29 03:50:47;;;;;;;9.73;4.78;;;8.70;99.90;;;;;;5040721;28;20052;-65
2021/05/29 03:53:13;;;;;;;8.30;4.50;;;8.70;99.90;;;;;;5043474;28;20425;-65
2021/05/29 03:55:40;;;;;;;8.93;4.65;;;8.70;99.90;;;;;;5043449;28;20052;-65
2021/05/29 03:58:08;;;;;;;10.75;5.05;;;8.90;99.90;;;;;;5043306;28;20866;-65
2021/05/29 04:00:34;;;;;;;8.38;4.75;;;8.70;99.90;;;;;;5043446;28;20501;-65
2021/05/29 04:03:01;;;;;;;10.90;4.85;;;8.70;99.90;;;;;;5040507;28;20048;-65
2021/05/29 04:05:28;;;;;;;8.85;4.80;;;8.80;99.90;;;;;;5041696;28;20056;-65
2021/05/29 04:07:54;;;;;;;9.23;4.97;;;8.90;99.90;;;;;;5039596;28;20053;-65
2021/05/29 04:10:25;;;;;;;10.60;4.88;;;9.00;99.90;;;;;;5041391;28;20051;-65
2021/05/29 04:12:52;;;;;;;8.70;4.88;;;8.90;99.90;;;;;;5039024;28;20146;-65
2021/05/29 04:15:19;;;;;;;8.55;5.10;;;8.90;99.90;;;;;;5041627;28;20092;-65
2021/05/29 04:17:47;;;;;;;7.35;4.35;;;8.90;99.90;;;;;;5041006;28;20052;-65
2021/05/29 04:20:16;;;;;;;9.52;5.35;;;8.90;99.90;;;;;;5040406;28;20063;-65
2021/05/29 04:22:43;;;;;;;10.95;5.03;;;9.00;99.90;;;;;;5040526;28;20086;-65
2021/05/29 04:25:13;;;;;;;9.10;5.20;;;9.00;99.90;;;;;;5043984;28;20044;-65
2021/05/29 04:27:40;;;;;;;11.02;5.00;;;9.10;99.90;;;;;;5042134;28;20052;-65
2021/05/29 04:30:11;;;;;;;9.20;5.22;;;9.30;99.90;;;;;;5045047;28;20052;-65
2021/05/29 04:32:38;;;;;;;12.23;5.70;;;9.30;99.90;;;;;;5043031;28;20053;-65
2021/05/29 04:35:07;;;;;;;8.63;5.05;;;9.30;99.90;;;;;;5042600;28;20055;-66
2021/05/29 04:37:34;;;;;;;12.00;4.63;;;9.40;99.90;;;;;;5044438;28;20063;-66
2021/05/29 04:40:00;;;;;;;7.97;4.38;;;9.40;99.90;;;;;;5042167;28;20205;-66
2021/05/29 04:42:27;;;;;;;8.98;4.70;;;9.50;99.90;;;;;;5041909;28;20048;-66
2021/05/29 04:44:53;;;;;;;11.25;6.38;;;9.50;99.90;;;;;;5042272;28;20059;-66
2021/05/29 04:47:20;;;;;;;10.25;5.43;;;9.50;99.90;;;;;;5043423;28;20060;-66
2021/05/29 04:49:47;;;;;;;11.32;4.70;;;9.60;99.90;;;;;;5054687;28;20056;-66
2021/05/29 04:52:14;;;;;;;8.95;4.30;;;9.70;99.90;;;;;;5051010;28;20078;-66
2021/05/29 04:54:40;;;;;;;10.80;4.78;;;9.80;99.90;;;;;;5045555;28;20052;-66
2021/05/29 04:57:07;;;;;;;9.88;5.07;;;9.80;99.90;;;;;;5041467;28;20398;-66
2021/05/29 04:59:34;;;;;;;8.98;4.47;;;9.80;99.90;;;;;;5045400;28;20508;-66
2021/05/29 05:02:00;;;;;;;13.52;4.65;;;9.90;99.90;;;;;;5047755;28;20713;-66
2021/05/29 05:04:27;;;;;;;8.43;4.75;;;9.80;99.90;;;;;;5044600;28;20048;-65
2021/05/29 05:06:54;;;;;;;9.93;5.03;;;9.90;99.90;;;;;;5044543;28;20060;-65
2021/05/29 05:09:21;;;;;;;8.27;5.22;;;9.90;99.90;;;;;;5045084;28;20412;-65
2021/05/29 05:11:48;;;;;;;9.80;4.65;;;10.00;99.90;;;;;;5044152;28;20064;-66
2021/05/29 05:14:14;;;;;;;9.60;5.22;;;10.00;99.90;;;;;;5043125;28;20062;-66
2021/05/29 05:16:41;;;;;;;13.82;4.90;;;10.10;99.90;;;;;;5042086;28;20044;-65
2021/05/29 05:19:07;;;;;;;9.95;4.82;;;10.00;99.90;;;;;;5045208;28;20052;-66
2021/05/29 05:21:34;;;;;;;7.78;4.45;;;10.00;99.90;;;;;;5042989;28;20059;-66
2021/05/29 05:24:02;;;;;;;8.30;4.53;;;10.20;99.90;;;;;;5045918;28;20044;-67
2021/05/29 05:26:28;;;;;;;9.68;4.85;;;10.30;99.90;;;;;;5046059;28;20975;-66
2021/05/29 05:28:55;;;;;;;7.05;4.65;;;10.30;99.90;;;;;;5040621;28;20056;-66
2021/05/29 05:31:22;;;;;;;11.25;4.50;;;10.40;99.90;;;;;;5048408;28;20060;-66
2021/05/29 05:33:50;;;;;;;7.40;4.63;;;10.40;99.90;;;;;;5050181;28;20118;-66
2021/05/29 05:36:17;;;;;;;8.10;4.60;;;10.50;99.90;;;;;;5055972;28;20404;-66
2021/05/29 05:38:45;;;;;;;10.02;4.82;;;10.50;99.90;;;;;;5053360;28;20056;-66
2021/05/29 05:41:13;;;;;;;10.13;4.82;;;10.40;99.90;;;;;;5042669;28;20048;-66
2021/05/29 05:43:40;;;;;;;7.65;4.45;;;10.50;99.90;;;;;;5046826;28;20053;-66
2021/05/29 05:46:07;;;;;;;9.48;4.72;;;10.40;99.90;;;;;;5045049;28;20045;-66
2021/05/29 05:48:34;;;;;;;8.18;4.25;;;10.40;99.90;;;;;;5041331;28;20136;-66
2021/05/29 05:51:01;;;;;;;11.43;5.13;;;10.50;99.90;;;;;;5041291;28;20527;-69
2021/05/29 05:53:30;;;;;;;8.35;4.90;;;10.60;99.90;;;;;;5043578;28;20652;-66
2021/05/29 05:56:00;;;;;;;7.82;4.28;;;10.70;99.90;;;;;;5047181;28;20059;-66
2021/05/29 05:58:27;;;;;;;8.40;4.40;;;10.90;99.90;;;;;;5041782;28;20075;-66
2021/05/29 06:00:54;;;;;;;9.00;4.90;;;10.80;99.90;;;;;;5046136;28;20056;-66
2021/05/29 06:03:21;;;;;;;10.35;4.43;;;11.00;99.90;;;;;;5045056;28;20051;-66
2021/05/29 06:05:49;;;;;;;7.28;3.97;;;11.10;99.90;;;;;;5045714;28;20056;-66
2021/05/29 06:08:16;;;;;;;9.40;4.35;;;11.10;99.90;;;;;;5043522;28;20048;-67
2021/05/29 06:10:43;;;;;;;9.15;4.05;;;11.20;99.90;;;;;;5045534;28;20053;-66
2021/05/29 06:13:13;;;;;;;7.40;3.92;;;11.20;99.90;;;;;;5044461;28;20056;-66
2021/05/29 06:21:09;;;;;;;6.90;3.47;;;11.30;99.90;;;;;;5023231;28;20737;-66
2021/05/29 06:23:36;;;;;;;8.68;3.72;;;11.30;99.90;;;;;;5045185;28;20056;-66
2021/05/29 06:26:03;;;;;;;5.18;3.03;;;11.50;99.90;;;;;;5045100;28;20056;-66
2021/05/29 06:28:30;;;;;;;6.97;3.25;;;11.50;99.90;;;;;;5048066;28;20053;-66
2021/05/29 06:30:57;;;;;;;6.63;3.20;;;11.60;99.90;;;;;;5052876;28;20052;-66
2021/05/29 06:33:24;;;;;;;7.35;3.33;;;11.70;99.90;;;;;;5052292;28;20055;-66
2021/05/29 06:35:51;;;;;;;7.55;3.13;;;11.80;99.90;;;;;;5053978;28;20113;-66
2021/05/29 06:38:17;;;;;;;5.45;3.00;;;11.90;99.90;;;;;;5052383;28;20049;-66
2021/05/29 06:40:44;;;;;;;5.30;2.88;;;12.00;99.90;;;;;;5050871;28;20078;-67
2021/05/29 06:43:10;;;;;;;7.20;3.13;;;12.20;99.90;;;;;;5044880;28;20048;-70
2021/05/29 06:45:37;;;;;;;5.72;2.60;;;12.40;99.90;;;;;;5052051;28;20053;-71
2021/05/29 06:48:07;;;;;;;5.32;2.63;;;12.60;99.90;;;;;;5043756;28;20052;-71
2021/05/29 06:50:34;;;;;;;4.32;2.17;;;12.70;99.90;;;;;;5043388;28;20804;-69
2021/05/29 06:53:03;;;;;;;6.35;2.65;;;12.80;99.90;;;;;;5042245;28;20083;-69
2021/05/29 07:01:07;;;;;;;6.85;2.03;;;13.20;99.90;;;;;;5015402;28;20698;-71
2021/05/29 07:03:35;;;;;;;5.28;2.75;;;13.30;99.90;;;;;;5043790;28;20891;-70
2021/05/29 07:06:01;;;;;;;7.07;2.50;;;13.40;99.90;;;;;;5044432;28;20052;-71
2021/05/29 07:08:28;;;;;;;5.43;2.60;;;13.50;99.90;;;;;;5041164;28;20059;-71
2021/05/29 07:10:55;;;;;;;6.07;2.60;;;13.50;99.90;;;;;;5044374;28;20048;-65
2021/05/29 07:13:21;;;;;;;5.20;2.45;;;13.60;99.90;;;;;;5044433;28;20513;-69
2021/05/29 07:15:48;;;;;;;8.82;2.70;;;13.50;99.90;;;;;;5044113;28;20056;-67
2021/05/29 07:18:16;;;;;;;4.68;2.38;;;13.60;99.90;;;;;;5044399;28;20063;-67
2021/05/29 07:20:43;;;;;;;5.95;2.40;;;13.60;99.90;;;;;;5044360;28;20138;-67
2021/05/29 07:23:10;;;;;;;4.50;2.20;;;13.70;99.90;;;;;;5042989;28;20052;-67
2021/05/29 07:25:37;;;;;;;4.45;2.10;;;13.60;99.90;;;;;;5044069;28;20052;-68
2021/05/29 07:28:04;;;;;;;5.80;2.70;;;13.80;99.90;;;;;;5040515;28;20056;-68
2021/05/29 07:30:31;;;;;;;7.00;2.80;;;13.90;99.90;;;;;;5045539;28;20560;-67
2021/05/29 07:32:58;;;;;;;5.05;2.10;;;14.10;99.90;;;;;;5051489;28;20048;-67
2021/05/29 07:35:27;;;;;;;7.65;2.65;;;14.20;99.90;;;;;;5052312;28;20052;-68
2021/05/29 07:37:54;;;;;;;5.40;2.28;;;14.30;99.90;;;;;;5048383;28;20052;-68
2021/05/29 07:40:21;;;;;;;4.65;2.47;;;14.50;99.90;;;;;;5051205;28;20048;-68
2021/05/29 07:42:48;;;;;;;6.43;2.58;;;14.70;99.90;;;;;;5050660;28;20056;-68
2021/05/29 07:45:15;;;;;;;4.82;2.42;;;15.00;99.90;;;;;;5042510;28;20048;-68
2021/05/29 07:47:43;;;;;;;3.85;2.00;;;15.00;99.90;;;;;;5043953;28;20052;-68
2021/05/29 07:50:11;;;;;;;5.10;2.53;;;15.00;99.90;;;;;;5039666;28;20082;-68
2021/05/29 07:52:38;;;;;;;7.13;2.30;;;15.00;99.90;;;;;;5037723;28;20574;-68
2021/05/29 07:55:07;;;;;;;6.18;2.00;;;15.20;99.90;;;;;;5046096;28;20052;-68
2021/05/29 07:57:34;;;;;;;3.90;2.10;;;15.40;99.90;;;;;;5038958;28;20052;-68
2021/05/29 08:00:01;;;;;;;4.65;2.05;;;15.60;99.90;;;;;;5044687;28;20048;-68
2021/05/29 08:02:29;;;;;;;4.85;1.95;;;15.70;99.90;;;;;;5051949;28;20064;-68
2021/05/29 08:04:56;;;;;;;5.50;1.90;;;16.00;99.90;;;;;;5048106;28;20056;-68
2021/05/29 08:07:22;;;;;;;5.97;2.13;;;16.10;99.90;;;;;;5045537;28;20131;-68
2021/05/29 08:09:49;;;;;;;3.20;1.38;;;16.40;99.90;;;;;;5046018;28;20056;-68
2021/05/29 08:12:16;;;;;;;4.80;1.75;;;16.50;99.90;;;;;;5045144;28;20047;-68
2021/05/29 08:14:43;;;;;;;4.30;1.80;;;16.70;99.90;;;;;;5045633;28;20052;-68
2021/05/29 08:17:10;;;;;;;3.42;1.58;;;16.90;99.90;;;;;;5045656;28;20059;-68
2021/05/29 08:19:36;;;;;;;4.55;1.92;;;17.20;99.90;;;;;;5046726;28;20048;-68
2021/05/29 08:22:03;;;;;;;3.72;1.88;;;17.60;99.90;;;;;;5047815;28;20063;-68
2021/05/29 08:24:30;;;;;;;5.07;1.98;;;17.90;99.90;;;;;;5046779;28;20062;-69
2021/05/29 08:26:57;;;;;;;4.82;1.95;;;18.10;99.90;;;;;;5043967;28;20052;-68
2021/05/29 08:29:24;;;;;;;4.28;1.98;;;18.10;99.90;;;;;;5045429;28;20048;-68
2021/05/29 08:31:51;;;;;;;10.00;1.80;;;17.90;99.90;;;;;;5044677;28;20056;-68
2021/05/29 08:34:17;;;;;;;2.20;1.25;;;17.70;99.90;;;;;;5046412;28;20048;-68
2021/05/29 08:36:44;;;;;;;5.88;1.73;;;18.10;99.90;;;;;;5045322;28;20501;-68
2021/05/29 08:39:11;;;;;;;5.93;1.83;;;18.20;99.90;;;;;;5044146;28;20055;-68
2021/05/29 08:41:38;;;;;;;9.95;1.80;;;18.10;99.90;;;;;;5045862;28;20576;-68
2021/05/29 08:44:08;;;;;;;3.72;1.60;;;18.50;99.90;;;;;;5045585;28;20111;-68
2021/05/29 08:46:36;;;;;;;4.63;1.40;;;18.70;99.90;;;;;;5045608;28;20078;-68
2021/05/29 08:49:03;;;;;;;2.80;1.30;;;18.20;99.90;;;;;;5043627;28;20079;-68
2021/05/29 08:51:29;;;;;;;3.08;1.20;;;18.80;99.90;;;;;;5045298;28;20530;-68
2021/05/29 08:53:57;;;;;;;3.30;1.10;;;19.60;99.90;;;;;;5049690;28;20109;-69
2021/05/29 08:56:26;;;;;;;2.72;1.10;;;19.80;99.90;;;;;;5045729;28;20057;-68
2021/05/29 08:58:53;;;;;;;1.42;0.75;;;20.40;99.90;;;;;;5042229;28;20053;-68
2021/05/29 09:01:21;;;;;;;3.47;1.10;;;21.10;99.90;;;;;;5045318;28;20059;-68
2021/05/29 09:03:51;;;;;;;2.63;0.60;;;20.70;99.90;;;;;;5045854;28;20079;-68
2021/05/29 09:06:19;;;;;;;2.22;0.80;;;21.20;99.90;;;;;;5046003;28;20052;-68
2021/05/29 09:08:54;;;;;;;1.58;0.90;;;21.80;99.90;;;;;;5043974;28;20056;-69
2021/05/29 09:11:41;;;;;;;1.55;0.70;;;22.30;99.90;;;;;;5045998;28;20052;-69
2021/05/29 09:14:34;;;;;;;2.17;0.90;;;23.20;99.90;;;;;;5046003;28;20051;-69
2021/05/29 09:17:14;;;;;;;1.85;0.80;;;23.80;98.30;;;;;;5041455;28;20481;-69
2021/05/29 09:20:04;;;;;;;1.77;0.88;;;24.30;95.90;;;;;;5043375;28;20109;-69
2021/05/29 09:22:34;;;;;;;1.33;0.82;;;24.80;94.20;;;;;;5046889;28;20052;-69
2021/05/29 09:25:07;;;;;;;5.68;0.80;;;24.80;92.20;;;;;;5043974;28;20558;-69
2021/05/29 09:27:35;;;;;;;2.80;0.90;;;25.50;92.10;;;;;;5041581;28;20047;-69
2021/05/29 09:30:04;;;;;;;2.53;0.90;;;26.00;91.70;;;;;;5045380;28;20523;-69
2021/05/29 09:32:34;;;;;;;6.97;1.73;;;26.30;89.60;;;;;;5043977;28;20121;-69
2021/05/29 09:35:07;;;;;;;2.45;1.23;;;26.50;88.80;;;;;;5044122;28;20498;-69
2021/05/29 09:37:35;;;;;;;1.23;0.93;;;27.00;88.50;;;;;;5046547;28;21368;-69
2021/05/29 09:40:06;;;;;;;4.32;1.20;;;27.10;83.80;;;;;;5042909;28;20089;-69
2021/05/29 09:42:34;;;;;;;2.47;1.00;;;27.50;81.20;;;;;;5043960;28;20132;-69
2021/05/29 09:45:19;;;;;;;2.13;1.00;;;27.80;81.50;;;;;;5046683;28;20051;-69
2021/05/29 09:48:17;;;;;;;1.25;1.05;;;28.00;78.30;;;;;;5050076;28;20062;-68
2021/05/29 09:51:08;;;;;;;1.33;0.98;;;27.70;76.70;;;;;;5051563;28;20763;-68
2021/05/29 09:53:37;;;;;;;2.35;0.75;;;27.80;77.50;;;;;;5049744;28;20083;-68
2021/05/29 09:56:06;;;;;;;1.23;1.00;;;27.90;74.40;;;;;;5048480;28;20132;-68
2021/05/29 09:58:52;;;;;;;1.42;0.95;;;27.90;73.70;;;;;;5049077;28;20048;-68
2021/05/29 10:01:40;;;;;;;1.02;0.80;;;28.40;66.70;;;;;;5053010;28;20094;-68
2021/05/29 10:04:08;;;;;;;1.85;1.10;;;27.90;69.50;;;;;;5051786;28;20063;-68
2021/05/29 10:06:36;;;;;;;1.85;1.10;;;28.30;71.30;;;;;;5052419;28;20048;-68
2021/05/29 10:09:04;;;;;;;2.20;0.88;;;29.00;69.90;;;;;;5051414;28;20061;-68
2021/05/29 10:11:32;;;;;;;3.00;0.80;;;29.50;64.10;;;;;;5049923;28;20053;-68
2021/05/29 10:13:58;;;;;;;2.03;0.77;;;30.00;64.50;;;;;;5051638;28;20595;-69
2021/05/29 10:16:26;;;;;;;3.53;1.00;;;28.80;62.20;;;;;;5051105;28;20060;-68
2021/05/29 10:18:54;;;;;;;1.88;0.95;;;27.30;63.60;;;;;;5056840;28;20063;-69
2021/05/29 10:21:22;;;;;;;2.00;0.98;;;26.10;66.90;;;;;;5057508;28;20052;-69
2021/05/29 10:23:50;;;;;;;2.75;1.00;;;25.00;69.20;;;;;;5052889;28;20439;-68
2021/05/29 10:26:18;;;;;;;3.63;1.10;;;24.20;71.80;;;;;;5054212;28;20058;-68
2021/05/29 10:28:46;;;;;;;4.03;0.90;;;23.30;76.30;;;;;;5054066;28;20063;-68
2021/05/29 10:31:13;;;;;;;2.13;0.75;;;22.60;78.80;;;;;;5053608;28;20501;-68
2021/05/29 10:33:41;;;;;;;3.65;0.82;;;21.50;81.80;;;;;;5054596;28;20536;-68
2021/05/29 10:36:09;;;;;;;4.20;0.97;;;20.70;90.00;;;;;;5047191;28;20077;-68
2021/05/29 10:38:43;;;;;;;2.15;0.70;;;20.30;92.30;;;;;;5047046;28;20854;-68
2021/05/29 10:41:11;;;;;;;1.80;1.10;;;20.00;91.60;;;;;;5054712;28;20048;-67
2021/05/29 10:43:38;;;;;;;1.48;0.95;;;19.80;90.80;;;;;;5055881;28;20120;-68
2021/05/29 10:46:09;;;;;;;1.02;0.85;;;19.80;87.40;;;;;;5052291;28;20060;-67
2021/05/29 10:48:48;;;;;;;1.92;0.90;;;19.80;83.90;;;;;;5053011;28;20465;-67
2021/05/29 10:51:15;;;;;;;1.48;0.90;;;19.80;86.20;;;;;;5052987;28;20048;-67
2021/05/29 10:53:46;;;;;;;1.05;0.63;;;20.10;85.60;;;;;;5048923;28;20475;-67
2021/05/29 10:56:36;;;;;;;3.33;0.85;;;20.40;87.00;;;;;;5048543;28;20509;-67
2021/05/29 10:59:06;;;;;;;2.10;0.73;;;19.90;85.70;;;;;;5047628;28;20097;-67
2021/05/29 11:02:10;;;;;;;8.02;1.48;;;19.80;88.90;;;;;;5047429;28;20063;-67
2021/05/29 11:04:37;;;;;;;1.20;0.88;;;19.90;91.40;;;;;;5049130;28;20074;-69
2021/05/29 11:07:24;;;;;;;5.55;1.10;;;20.50;92.10;;;;;;5050803;28;21531;-67
2021/05/29 11:09:53;;;;;;;2.17;0.63;;;21.20;90.00;;;;;;5051817;28;20052;-67
2021/05/29 11:12:22;;;;;;;1.30;0.90;;;21.70;87.80;;;;;;5050428;28;20295;-67
2021/05/29 11:14:55;;;;;;;2.83;0.90;;;22.40;86.10;;;;;;5049394;28;20052;-67
2021/05/29 11:17:25;;;;;;;0.88;0.57;;;23.70;85.30;;;;;;5046016;28;20589;-67
2021/05/29 11:20:18;;;;;;;2.53;0.80;;;24.30;77.90;;;;;;5048678;28;20080;-67
2021/05/29 11:22:47;;;;;;;1.20;0.60;;;24.90;79.40;;;;;;5026730;28;20059;-67
2021/05/29 11:25:16;;;;;;;0.88;0.70;;;25.60;76.10;;;;;;5042300;28;20052;-67
2021/05/29 11:27:46;;;;;;;1.33;0.88;;;25.60;72.50;;;;;;5043351;28;20052;-68
2021/05/29 11:30:15;;;;;;;2.42;0.90;;;26.00;74.60;;;;;;5044032;28;20074;-67
2021/05/29 11:32:52;;;;;;;4.10;0.95;;;25.60;73.60;;;;;;5044966;28;20162;-70
2021/05/29 11:35:41;;;;;;;4.20;1.00;;;25.30;73.50;;;;;;5049841;28;20406;-71
2021/05/29 11:38:15;;;;;;;2.30;0.82;;;25.10;73.80;;;;;;5042553;28;20045;-69
2021/05/29 11:40:44;;;;;;;3.28;1.10;;;25.30;72.30;;;;;;5042896;28;20056;-68
2021/05/29 11:43:12;;;;;;;2.35;0.85;;;25.90;71.80;;;;;;5045588;28;20091;-68
2021/05/29 11:45:39;;;;;;;3.80;0.85;;;25.80;71.20;;;;;;5045488;28;20052;-68
2021/05/29 11:48:07;;;;;;;2.28;0.90;;;27.00;68.70;;;;;;5039123;28;20501;-68
2021/05/29 11:50:34;;;;;;;1.50;0.77;;;27.60;67.40;;;;;;5042186;28;20060;-68
2021/05/29 11:53:01;;;;;;;2.75;1.02;;;27.00;66.30;;;;;;5044279;28;20071;-68
2021/05/29 11:55:27;;;;;;;2.47;0.68;;;26.40;68.60;;;;;;5045541;28;20044;-68
2021/05/29 11:58:01;;;;;;;1.38;0.90;;;26.30;68.00;;;;;;5043595;28;20884;-68
2021/05/29 12:00:29;;;;;;;1.13;0.80;;;27.20;67.20;;;;;;5046531;28;20056;-68
2021/05/29 12:02:56;;;;;;;2.25;0.90;;;27.10;67.40;;;;;;5041815;28;20059;-68
2021/05/29 12:05:37;;;;;;;1.58;0.88;;;27.50;66.40;;;;;;5043908;28;20048;-68
2021/05/29 12:08:05;;;;;;;2.58;0.80;;;28.10;63.70;;;;;;5044899;28;20056;-68
2021/05/29 12:10:49;;;;;;;2.22;1.25;;;27.70;62.00;;;;;;5045485;28;20535;-68
2021/05/29 12:13:24;;;;;;;2.00;1.02;;;27.60;61.60;;;;;;5044652;28;20428;-68
2021/05/29 12:15:56;;;;;;;3.25;0.90;;;28.80;62.40;;;;;;5042651;28;20056;-68
2021/05/29 12:18:24;;;;;;;2.70;0.88;;;28.30;60.80;;;;;;5041091;28;20730;-68
2021/05/29 12:20:59;;;;;;;1.70;0.82;;;28.70;59.90;;;;;;5037933;28;20095;-68
2021/05/29 12:23:25;;;;;;;3.28;1.20;;;28.80;59.60;;;;;;5037047;28;20705;-68
2021/05/29 12:25:52;;;;;;;3.17;1.10;;;28.50;60.50;;;;;;5037243;28;20109;-68
2021/05/29 12:28:21;;;;;;;1.00;0.80;;;28.90;59.20;;;;;;5040587;28;20118;-68
2021/05/29 12:30:48;;;;;;;1.00;0.85;;;29.30;59.80;;;;;;5041791;28;20044;-68
2021/05/29 12:33:21;;;;;;;1.85;1.00;;;29.50;57.00;;;;;;5048627;28;20443;-69
2021/05/29 12:35:48;;;;;;;1.88;0.80;;;29.60;58.60;;;;;;5053121;28;20086;-68
2021/05/29 12:38:16;;;;;;;1.67;0.75;;;29.30;59.10;;;;;;5047028;28;20059;-68
2021/05/29 12:40:59;;;;;;;1.15;0.90;;;29.50;58.50;;;;;;5049791;28;20051;-70
2021/05/29 12:43:26;;;;;;;0.98;0.82;;;28.50;58.30;;;;;;5048555;28;20055;-70
2021/05/29 12:45:53;;;;;;;1.77;0.90;;;28.40;59.30;;;;;;5044604;28;20595;-70
2021/05/29 12:48:21;;;;;;;5.45;1.05;;;28.20;58.60;;;;;;5043015;28;20062;-70
2021/05/29 12:51:09;;;;;;;3.00;1.10;;;27.50;59.10;;;;;;5045774;28;20051;-70
2021/05/29 12:53:37;;;;;;;1.33;0.80;;;27.00;58.40;;;;;;5042977;28;20059;-70
2021/05/29 12:56:12;;;;;;;3.72;1.13;;;26.70;59.90;;;;;;5035096;28;20186;-70
2021/05/29 12:58:39;;;;;;;2.28;1.05;;;26.40;62.80;;;;;;5040617;28;20047;-70
2021/05/29 13:09:38;;;;;;;1.60;0.80;;;27.30;63.10;;;;;;5052514;28;20063;-71
2021/05/29 13:12:15;;;;;;;3.28;0.88;;;28.20;59.40;;;;;;5056320;28;20509;-71
2021/05/29 13:14:43;;;;;;;1.92;0.88;;;28.70;58.10;;;;;;5050529;28;20048;-69
2021/05/29 13:17:21;;;;;;;5.93;0.82;;;28.90;56.50;;;;;;5053897;28;20045;-70
2021/05/29 13:19:50;;;;;;;4.70;1.00;;;27.80;55.80;;;;;;5054453;28;20492;-69